sensor_id;sensor_type;location;lat;lon;timestamp;P1;durP1;ratioP1;P2;durP2;ratioP2
56429;SDS011;42332;52.136;20.666;2023-01-05T00:00:48;12.63;;;6.20;;
56429;SDS011;42332;52.136;20.666;2023-01-05T00:03:14;14.50;;;7.22;;
56429;SDS011;42332;52.136;20.666;2023-01-05T00:05:39;20.45;;;6.88;;
56429;SDS011;42332;52.136;20.666;2023-01-05T00:08:04;14.82;;;6.68;;
56429;SDS011;42332;52.136;20.666;2023-01-05T00:10:30;11.70;;;5.90;;
56429;SDS011;42332;52.136;20.666;2023-01-05T00:13:14;15.40;;;7.00;;
56429;SDS011;42332;52.136;20.666;2023-01-05T00:15:58;11.57;;;5.22;;
56429;SDS011;42332;52.136;20.666;2023-01-05T00:18:42;10.45;;;4.85;;
56429;SDS011;42332;52.136;20.666;2023-01-05T00:21:26;10.75;;;5.72;;
56429;SDS011;42332;52.136;20.666;2023-01-05T00:24:10;12.02;;;6.10;;
56429;SDS011;42332;52.136;20.666;2023-01-05T00:26:35;11.27;;;5.40;;
56429;SDS011;42332;52.136;20.666;2023-01-05T00:29:00;10.77;;;5.53;;
56429;SDS011;42332;52.136;20.666;2023-01-05T00:31:26;12.23;;;6.60;;
56429;SDS011;42332;52.136;20.666;2023-01-05T00:33:51;14.80;;;6.15;;
56429;SDS011;42332;52.136;20.666;2023-01-05T00:36:16;9.63;;;4.50;;
56429;SDS011;42332;52.136;20.666;2023-01-05T00:38:42;12.82;;;5.55;;
56429;SDS011;42332;52.136;20.666;2023-01-05T00:41:07;10.75;;;4.82;;
56429;SDS011;42332;52.136;20.666;2023-01-05T00:43:32;11.32;;;5.53;;
56429;SDS011;42332;52.136;20.666;2023-01-05T00:45:58;11.43;;;5.32;;
56429;SDS011;42332;52.136;20.666;2023-01-05T00:48:23;12.23;;;5.60;;
56429;SDS011;42332;52.136;20.666;2023-01-05T00:50:48;8.35;;;4.53;;
56429;SDS011;42332;52.136;20.666;2023-01-05T00:53:13;10.98;;;5.32;;
56429;SDS011;42332;52.136;20.666;2023-01-05T00:55:39;9.32;;;5.28;;
56429;SDS011;42332;52.136;20.666;2023-01-05T00:58:04;8.90;;;4.43;;
56429;SDS011;42332;52.136;20.666;2023-01-05T01:00:29;8.07;;;4.38;;
56429;SDS011;42332;52.136;20.666;2023-01-05T01:02:55;10.18;;;4.82;;
56429;SDS011;42332;52.136;20.666;2023-01-05T01:05:20;7.85;;;4.15;;
56429;SDS011;42332;52.136;20.666;2023-01-05T01:07:46;8.25;;;3.92;;
56429;SDS011;42332;52.136;20.666;2023-01-05T01:10:12;8.52;;;4.05;;
56429;SDS011;42332;52.136;20.666;2023-01-05T01:12:38;7.45;;;4.15;;
56429;SDS011;42332;52.136;20.666;2023-01-05T01:15:03;10.43;;;4.85;;
56429;SDS011;42332;52.136;20.666;2023-01-05T01:17:30;13.77;;;4.18;;
56429;SDS011;42332;52.136;20.666;2023-01-05T01:19:56;9.20;;;4.35;;
56429;SDS011;42332;52.136;20.666;2023-01-05T01:22:21;11.15;;;4.40;;
56429;SDS011;42332;52.136;20.666;2023-01-05T01:24:46;8.50;;;4.00;;
56429;SDS011;42332;52.136;20.666;2023-01-05T01:27:12;5.50;;;2.55;;
56429;SDS011;42332;52.136;20.666;2023-01-05T01:29:37;11.50;;;4.45;;
56429;SDS011;42332;52.136;20.666;2023-01-05T01:32:02;8.85;;;3.58;;
56429;SDS011;42332;52.136;20.666;2023-01-05T01:34:28;11.27;;;4.90;;
56429;SDS011;42332;52.136;20.666;2023-01-05T01:36:54;7.47;;;3.75;;
56429;SDS011;42332;52.136;20.666;2023-01-05T01:39:19;7.10;;;3.67;;
56429;SDS011;42332;52.136;20.666;2023-01-05T01:41:45;7.75;;;3.63;;
56429;SDS011;42332;52.136;20.666;2023-01-05T01:47:14;6.40;;;2.80;;
56429;SDS011;42332;52.136;20.666;2023-01-05T01:49:42;6.35;;;2.70;;
56429;SDS011;42332;52.136;20.666;2023-01-05T01:52:08;8.18;;;3.20;;
56429;SDS011;42332;52.136;20.666;2023-01-05T01:54:33;8.32;;;3.88;;
56429;SDS011;42332;52.136;20.666;2023-01-05T01:56:59;8.70;;;3.25;;
56429;SDS011;42332;52.136;20.666;2023-01-05T01:59:24;5.05;;;2.40;;
56429;SDS011;42332;52.136;20.666;2023-01-05T02:01:51;4.30;;;2.17;;
56429;SDS011;42332;52.136;20.666;2023-01-05T02:04:19;5.10;;;2.85;;
56429;SDS011;42332;52.136;20.666;2023-01-05T02:06:44;6.97;;;2.88;;
56429;SDS011;42332;52.136;20.666;2023-01-05T02:09:10;6.78;;;2.65;;
56429;SDS011;42332;52.136;20.666;2023-01-05T02:11:38;4.45;;;2.22;;
56429;SDS011;42332;52.136;20.666;2023-01-05T02:17:00;4.97;;;2.05;;
56429;SDS011;42332;52.136;20.666;2023-01-05T02:19:50;4.97;;;2.10;;
56429;SDS011;42332;52.136;20.666;2023-01-05T02:27:47;4.85;;;2.22;;
56429;SDS011;42332;52.136;20.666;2023-01-05T02:33:05;5.40;;;2.45;;
56429;SDS011;42332;52.136;20.666;2023-01-05T02:35:53;5.25;;;2.28;;
56429;SDS011;42332;52.136;20.666;2023-01-05T02:45:49;6.67;;;2.60;;
56429;SDS011;42332;52.136;20.666;2023-01-05T02:48:15;5.53;;;1.67;;
56429;SDS011;42332;52.136;20.666;2023-01-05T02:53:23;4.15;;;2.20;;
56429;SDS011;42332;52.136;20.666;2023-01-05T02:55:53;6.63;;;2.70;;
56429;SDS011;42332;52.136;20.666;2023-01-05T03:01:19;5.97;;;2.30;;
56429;SDS011;42332;52.136;20.666;2023-01-05T03:03:49;4.68;;;1.75;;
56429;SDS011;42332;52.136;20.666;2023-01-05T03:09:10;5.05;;;2.25;;
56429;SDS011;42332;52.136;20.666;2023-01-05T03:11:43;2.08;;;1.20;;
56429;SDS011;42332;52.136;20.666;2023-01-05T03:16:59;5.45;;;2.38;;
56429;SDS011;42332;52.136;20.666;2023-01-05T03:19:25;3.33;;;1.90;;
56429;SDS011;42332;52.136;20.666;2023-01-05T03:22:10;2.15;;;1.15;;
56429;SDS011;42332;52.136;20.666;2023-01-05T03:24:58;3.45;;;1.70;;
56429;SDS011;42332;52.136;20.666;2023-01-05T03:27:41;2.88;;;1.45;;
56429;SDS011;42332;52.136;20.666;2023-01-05T03:30:30;3.45;;;1.45;;
56429;SDS011;42332;52.136;20.666;2023-01-05T03:33:29;5.72;;;1.73;;
56429;SDS011;42332;52.136;20.666;2023-01-05T03:36:18;3.97;;;1.50;;
56429;SDS011;42332;52.136;20.666;2023-01-05T03:38:47;3.70;;;1.75;;
56429;SDS011;42332;52.136;20.666;2023-01-05T03:41:14;4.90;;;1.83;;
56429;SDS011;42332;52.136;20.666;2023-01-05T03:43:40;2.97;;;1.50;;
56429;SDS011;42332;52.136;20.666;2023-01-05T03:46:10;5.68;;;1.75;;
56429;SDS011;42332;52.136;20.666;2023-01-05T03:48:38;3.30;;;1.58;;
56429;SDS011;42332;52.136;20.666;2023-01-05T03:51:04;6.50;;;1.95;;
56429;SDS011;42332;52.136;20.666;2023-01-05T03:53:29;4.13;;;1.77;;
56429;SDS011;42332;52.136;20.666;2023-01-05T03:55:54;4.72;;;1.80;;
56429;SDS011;42332;52.136;20.666;2023-01-05T03:58:20;3.35;;;1.85;;
56429;SDS011;42332;52.136;20.666;2023-01-05T04:00:45;3.53;;;1.70;;
56429;SDS011;42332;52.136;20.666;2023-01-05T04:03:10;4.32;;;1.90;;
56429;SDS011;42332;52.136;20.666;2023-01-05T04:05:36;4.97;;;1.88;;
56429;SDS011;42332;52.136;20.666;2023-01-05T04:08:01;4.93;;;2.17;;
56429;SDS011;42332;52.136;20.666;2023-01-05T04:10:26;2.63;;;1.40;;
56429;SDS011;42332;52.136;20.666;2023-01-05T04:12:52;3.95;;;2.03;;
56429;SDS011;42332;52.136;20.666;2023-01-05T04:15:17;3.28;;;1.48;;
56429;SDS011;42332;52.136;20.666;2023-01-05T04:17:42;4.55;;;2.17;;
56429;SDS011;42332;52.136;20.666;2023-01-05T04:20:08;3.72;;;2.08;;
56429;SDS011;42332;52.136;20.666;2023-01-05T04:22:34;5.35;;;2.35;;
56429;SDS011;42332;52.136;20.666;2023-01-05T04:24:59;3.45;;;1.63;;
56429;SDS011;42332;52.136;20.666;2023-01-05T04:27:24;5.93;;;2.10;;
56429;SDS011;42332;52.136;20.666;2023-01-05T04:29:50;4.20;;;2.08;;
56429;SDS011;42332;52.136;20.666;2023-01-05T04:32:15;4.93;;;2.00;;
56429;SDS011;42332;52.136;20.666;2023-01-05T04:34:41;4.88;;;2.05;;
56429;SDS011;42332;52.136;20.666;2023-01-05T04:37:06;4.13;;;2.00;;
56429;SDS011;42332;52.136;20.666;2023-01-05T04:39:31;4.20;;;2.30;;
56429;SDS011;42332;52.136;20.666;2023-01-05T04:41:57;5.47;;;1.85;;
56429;SDS011;42332;52.136;20.666;2023-01-05T04:44:22;4.18;;;2.20;;
56429;SDS011;42332;52.136;20.666;2023-01-05T04:46:47;4.82;;;2.00;;
56429;SDS011;42332;52.136;20.666;2023-01-05T04:49:13;3.42;;;1.52;;
56429;SDS011;42332;52.136;20.666;2023-01-05T04:51:38;4.05;;;1.70;;
56429;SDS011;42332;52.136;20.666;2023-01-05T04:54:03;5.30;;;2.13;;
56429;SDS011;42332;52.136;20.666;2023-01-05T04:56:28;2.70;;;1.35;;
56429;SDS011;42332;52.136;20.666;2023-01-05T04:58:54;4.50;;;2.00;;
56429;SDS011;42332;52.136;20.666;2023-01-05T05:01:19;3.67;;;1.73;;
56429;SDS011;42332;52.136;20.666;2023-01-05T05:03:45;4.05;;;1.55;;
56429;SDS011;42332;52.136;20.666;2023-01-05T05:06:10;3.53;;;1.70;;
56429;SDS011;42332;52.136;20.666;2023-01-05T05:08:35;3.50;;;1.50;;
56429;SDS011;42332;52.136;20.666;2023-01-05T05:11:01;4.72;;;1.80;;
56429;SDS011;42332;52.136;20.666;2023-01-05T05:13:26;5.15;;;1.75;;
56429;SDS011;42332;52.136;20.666;2023-01-05T05:15:51;6.18;;;2.20;;
56429;SDS011;42332;52.136;20.666;2023-01-05T05:18:16;4.00;;;1.63;;
56429;SDS011;42332;52.136;20.666;2023-01-05T05:20:43;2.42;;;1.00;;
56429;SDS011;42332;52.136;20.666;2023-01-05T05:23:09;2.20;;;0.95;;
56429;SDS011;42332;52.136;20.666;2023-01-05T05:25:35;4.00;;;1.30;;
56429;SDS011;42332;52.136;20.666;2023-01-05T05:28:00;1.40;;;0.80;;
56429;SDS011;42332;52.136;20.666;2023-01-05T05:30:25;2.10;;;0.98;;
56429;SDS011;42332;52.136;20.666;2023-01-05T05:32:51;2.90;;;1.00;;
56429;SDS011;42332;52.136;20.666;2023-01-05T05:35:16;3.70;;;1.30;;
56429;SDS011;42332;52.136;20.666;2023-01-05T05:37:41;3.45;;;1.13;;
56429;SDS011;42332;52.136;20.666;2023-01-05T05:40:07;2.83;;;0.80;;
56429;SDS011;42332;52.136;20.666;2023-01-05T05:42:32;2.15;;;1.17;;
56429;SDS011;42332;52.136;20.666;2023-01-05T05:44:58;1.58;;;0.93;;
56429;SDS011;42332;52.136;20.666;2023-01-05T05:47:23;2.88;;;1.38;;
56429;SDS011;42332;52.136;20.666;2023-01-05T05:49:48;2.80;;;1.25;;
56429;SDS011;42332;52.136;20.666;2023-01-05T05:52:14;4.97;;;1.30;;
56429;SDS011;42332;52.136;20.666;2023-01-05T05:54:39;1.92;;;1.02;;
56429;SDS011;42332;52.136;20.666;2023-01-05T05:57:04;3.20;;;1.27;;
56429;SDS011;42332;52.136;20.666;2023-01-05T05:59:30;2.13;;;1.10;;
56429;SDS011;42332;52.136;20.666;2023-01-05T06:01:55;3.17;;;1.58;;
56429;SDS011;42332;52.136;20.666;2023-01-05T06:04:20;3.72;;;1.50;;
56429;SDS011;42332;52.136;20.666;2023-01-05T06:06:46;2.85;;;1.10;;
56429;SDS011;42332;52.136;20.666;2023-01-05T06:09:11;4.38;;;1.50;;
56429;SDS011;42332;52.136;20.666;2023-01-05T06:11:36;15.50;;;1.50;;
56429;SDS011;42332;52.136;20.666;2023-01-05T06:14:02;5.85;;;1.63;;
56429;SDS011;42332;52.136;20.666;2023-01-05T06:16:28;3.03;;;1.33;;
56429;SDS011;42332;52.136;20.666;2023-01-05T06:18:53;2.65;;;0.95;;
56429;SDS011;42332;52.136;20.666;2023-01-05T06:21:19;3.00;;;1.30;;
56429;SDS011;42332;52.136;20.666;2023-01-05T06:23:46;5.03;;;1.33;;
56429;SDS011;42332;52.136;20.666;2023-01-05T06:26:11;3.40;;;1.25;;
56429;SDS011;42332;52.136;20.666;2023-01-05T06:28:36;3.35;;;1.15;;
56429;SDS011;42332;52.136;20.666;2023-01-05T06:31:02;5.10;;;1.38;;
56429;SDS011;42332;52.136;20.666;2023-01-05T06:33:27;3.95;;;1.70;;
56429;SDS011;42332;52.136;20.666;2023-01-05T06:35:52;4.95;;;1.67;;
56429;SDS011;42332;52.136;20.666;2023-01-05T06:38:18;6.38;;;1.63;;
56429;SDS011;42332;52.136;20.666;2023-01-05T06:40:45;4.90;;;1.65;;
56429;SDS011;42332;52.136;20.666;2023-01-05T06:43:11;9.73;;;1.98;;
56429;SDS011;42332;52.136;20.666;2023-01-05T06:45:36;3.70;;;1.77;;
56429;SDS011;42332;52.136;20.666;2023-01-05T06:48:02;5.50;;;1.45;;
56429;SDS011;42332;52.136;20.666;2023-01-05T06:50:27;6.30;;;2.10;;
56429;SDS011;42332;52.136;20.666;2023-01-05T06:52:54;3.53;;;1.58;;
56429;SDS011;42332;52.136;20.666;2023-01-05T06:55:20;7.72;;;2.13;;
56429;SDS011;42332;52.136;20.666;2023-01-05T06:57:46;4.35;;;2.03;;
56429;SDS011;42332;52.136;20.666;2023-01-05T07:00:11;5.47;;;2.30;;
56429;SDS011;42332;52.136;20.666;2023-01-05T07:02:37;7.25;;;2.33;;
56429;SDS011;42332;52.136;20.666;2023-01-05T07:05:03;6.15;;;1.92;;
56429;SDS011;42332;52.136;20.666;2023-01-05T07:07:29;3.92;;;1.35;;
56429;SDS011;42332;52.136;20.666;2023-01-05T07:09:54;4.28;;;1.85;;
56429;SDS011;42332;52.136;20.666;2023-01-05T07:12:19;5.32;;;2.22;;
56429;SDS011;42332;52.136;20.666;2023-01-05T07:14:45;3.67;;;1.40;;
56429;SDS011;42332;52.136;20.666;2023-01-05T07:17:10;7.05;;;2.10;;
56429;SDS011;42332;52.136;20.666;2023-01-05T07:19:36;5.25;;;2.17;;
56429;SDS011;42332;52.136;20.666;2023-01-05T07:22:02;3.90;;;1.73;;
56429;SDS011;42332;52.136;20.666;2023-01-05T07:24:27;6.18;;;1.73;;
56429;SDS011;42332;52.136;20.666;2023-01-05T07:26:53;9.73;;;2.15;;
56429;SDS011;42332;52.136;20.666;2023-01-05T07:29:18;7.70;;;2.40;;
56429;SDS011;42332;52.136;20.666;2023-01-05T07:31:43;5.50;;;1.92;;
56429;SDS011;42332;52.136;20.666;2023-01-05T07:34:11;5.10;;;2.20;;
56429;SDS011;42332;52.136;20.666;2023-01-05T07:36:36;5.55;;;2.30;;
56429;SDS011;42332;52.136;20.666;2023-01-05T07:39:02;7.05;;;2.28;;
56429;SDS011;42332;52.136;20.666;2023-01-05T07:41:28;8.73;;;2.53;;
56429;SDS011;42332;52.136;20.666;2023-01-05T07:43:53;5.15;;;2.03;;
56429;SDS011;42332;52.136;20.666;2023-01-05T07:46:18;5.57;;;2.30;;
56429;SDS011;42332;52.136;20.666;2023-01-05T07:48:44;3.88;;;1.60;;
56429;SDS011;42332;52.136;20.666;2023-01-05T07:51:09;5.63;;;2.72;;
56429;SDS011;42332;52.136;20.666;2023-01-05T07:53:35;7.88;;;2.65;;
56429;SDS011;42332;52.136;20.666;2023-01-05T07:56:03;5.68;;;2.20;;
56429;SDS011;42332;52.136;20.666;2023-01-05T07:58:30;3.72;;;1.80;;
56429;SDS011;42332;52.136;20.666;2023-01-05T08:00:56;6.55;;;2.60;;
56429;SDS011;42332;52.136;20.666;2023-01-05T08:03:21;5.53;;;2.03;;
56429;SDS011;42332;52.136;20.666;2023-01-05T08:05:47;9.32;;;2.05;;
56429;SDS011;42332;52.136;20.666;2023-01-05T08:08:13;5.85;;;2.70;;
56429;SDS011;42332;52.136;20.666;2023-01-05T08:10:39;11.00;;;3.20;;
56429;SDS011;42332;52.136;20.666;2023-01-05T08:13:05;12.73;;;2.28;;
56429;SDS011;42332;52.136;20.666;2023-01-05T08:15:51;3.95;;;1.60;;
56429;SDS011;42332;52.136;20.666;2023-01-05T08:18:17;5.32;;;2.28;;
56429;SDS011;42332;52.136;20.666;2023-01-05T08:20:48;5.15;;;2.22;;
56429;SDS011;42332;52.136;20.666;2023-01-05T08:23:17;6.65;;;2.28;;
56429;SDS011;42332;52.136;20.666;2023-01-05T08:25:43;6.65;;;2.08;;
56429;SDS011;42332;52.136;20.666;2023-01-05T08:28:08;7.53;;;2.15;;
56429;SDS011;42332;52.136;20.666;2023-01-05T08:30:33;6.97;;;2.20;;
56429;SDS011;42332;52.136;20.666;2023-01-05T08:32:59;7.43;;;2.42;;
56429;SDS011;42332;52.136;20.666;2023-01-05T08:35:24;8.25;;;2.42;;
56429;SDS011;42332;52.136;20.666;2023-01-05T08:37:49;28.42;;;2.80;;
56429;SDS011;42332;52.136;20.666;2023-01-05T08:40:15;2.67;;;0.93;;
56429;SDS011;42332;52.136;20.666;2023-01-05T08:42:40;4.25;;;2.10;;
56429;SDS011;42332;52.136;20.666;2023-01-05T08:45:06;4.22;;;1.60;;
56429;SDS011;42332;52.136;20.666;2023-01-05T08:47:31;3.65;;;1.48;;
56429;SDS011;42332;52.136;20.666;2023-01-05T08:49:56;5.13;;;1.73;;
56429;SDS011;42332;52.136;20.666;2023-01-05T08:52:22;3.90;;;2.65;;
56429;SDS011;42332;52.136;20.666;2023-01-05T08:54:47;9.23;;;2.22;;
56429;SDS011;42332;52.136;20.666;2023-01-05T08:57:13;9.23;;;1.95;;
56429;SDS011;42332;52.136;20.666;2023-01-05T08:59:38;3.13;;;1.55;;
56429;SDS011;42332;52.136;20.666;2023-01-05T09:02:04;8.82;;;2.20;;
56429;SDS011;42332;52.136;20.666;2023-01-05T09:04:30;7.55;;;2.10;;
56429;SDS011;42332;52.136;20.666;2023-01-05T09:06:55;6.43;;;2.03;;
56429;SDS011;42332;52.136;20.666;2023-01-05T09:09:21;7.15;;;1.67;;
56429;SDS011;42332;52.136;20.666;2023-01-05T09:11:48;2.75;;;1.42;;
56429;SDS011;42332;52.136;20.666;2023-01-05T09:14:14;6.15;;;2.22;;
56429;SDS011;42332;52.136;20.666;2023-01-05T09:16:39;4.90;;;1.90;;
56429;SDS011;42332;52.136;20.666;2023-01-05T09:19:05;6.63;;;2.28;;
56429;SDS011;42332;52.136;20.666;2023-01-05T09:21:30;7.70;;;2.47;;
56429;SDS011;42332;52.136;20.666;2023-01-05T09:23:56;8.07;;;2.60;;
56429;SDS011;42332;52.136;20.666;2023-01-05T09:26:21;8.10;;;3.13;;
56429;SDS011;42332;52.136;20.666;2023-01-05T09:28:46;4.55;;;2.00;;
56429;SDS011;42332;52.136;20.666;2023-01-05T09:31:16;12.85;;;2.75;;
56429;SDS011;42332;52.136;20.666;2023-01-05T09:33:45;4.18;;;1.70;;
56429;SDS011;42332;52.136;20.666;2023-01-05T09:36:11;5.30;;;2.17;;
56429;SDS011;42332;52.136;20.666;2023-01-05T09:38:38;9.13;;;3.10;;
56429;SDS011;42332;52.136;20.666;2023-01-05T09:46:21;5.38;;;2.25;;
56429;SDS011;42332;52.136;20.666;2023-01-05T09:48:54;6.38;;;2.58;;
56429;SDS011;42332;52.136;20.666;2023-01-05T09:51:21;6.95;;;2.35;;
56429;SDS011;42332;52.136;20.666;2023-01-05T09:53:47;9.23;;;2.90;;
56429;SDS011;42332;52.136;20.666;2023-01-05T09:56:21;6.28;;;2.38;;
56429;SDS011;42332;52.136;20.666;2023-01-05T09:58:52;9.98;;;3.67;;
56429;SDS011;42332;52.136;20.666;2023-01-05T10:01:40;16.00;;;3.25;;
56429;SDS011;42332;52.136;20.666;2023-01-05T10:04:09;11.88;;;2.55;;
56429;SDS011;42332;52.136;20.666;2023-01-05T10:06:38;9.98;;;2.90;;
56429;SDS011;42332;52.136;20.666;2023-01-05T10:09:06;6.40;;;2.80;;
56429;SDS011;42332;52.136;20.666;2023-01-05T10:14:23;15.25;;;3.85;;
56429;SDS011;42332;52.136;20.666;2023-01-05T10:16:52;13.32;;;4.38;;
56429;SDS011;42332;52.136;20.666;2023-01-05T10:19:18;12.07;;;3.40;;
56429;SDS011;42332;52.136;20.666;2023-01-05T10:24:31;12.52;;;3.45;;
56429;SDS011;42332;52.136;20.666;2023-01-05T10:27:12;12.90;;;3.00;;
56429;SDS011;42332;52.136;20.666;2023-01-05T10:29:43;8.60;;;3.45;;
56429;SDS011;42332;52.136;20.666;2023-01-05T10:32:25;6.30;;;2.30;;
56429;SDS011;42332;52.136;20.666;2023-01-05T10:34:55;8.95;;;2.72;;
56429;SDS011;42332;52.136;20.666;2023-01-05T10:37:44;11.43;;;3.72;;
56429;SDS011;42332;52.136;20.666;2023-01-05T10:43:35;9.05;;;2.88;;
56429;SDS011;42332;52.136;20.666;2023-01-05T10:45:52;9.48;;;2.75;;
56429;SDS011;42332;52.136;20.666;2023-01-05T10:48:18;7.22;;;2.83;;
56429;SDS011;42332;52.136;20.666;2023-01-05T10:50:47;4.97;;;2.40;;
56429;SDS011;42332;52.136;20.666;2023-01-05T10:53:14;14.95;;;2.75;;
56429;SDS011;42332;52.136;20.666;2023-01-05T10:55:56;7.63;;;2.28;;
56429;SDS011;42332;52.136;20.666;2023-01-05T10:58:31;10.25;;;2.33;;
56429;SDS011;42332;52.136;20.666;2023-01-05T11:01:05;7.45;;;2.28;;
56429;SDS011;42332;52.136;20.666;2023-01-05T11:03:46;7.88;;;2.10;;
56429;SDS011;42332;52.136;20.666;2023-01-05T11:06:19;11.18;;;2.28;;
56429;SDS011;42332;52.136;20.666;2023-01-05T11:08:46;8.60;;;2.03;;
56429;SDS011;42332;52.136;20.666;2023-01-05T11:11:13;8.07;;;2.08;;
56429;SDS011;42332;52.136;20.666;2023-01-05T11:13:49;12.15;;;3.10;;
56429;SDS011;42332;52.136;20.666;2023-01-05T11:19:03;6.97;;;1.90;;
56429;SDS011;42332;52.136;20.666;2023-01-05T11:24:00;11.07;;;2.47;;
56429;SDS011;42332;52.136;20.666;2023-01-05T11:26:30;3.00;;;1.27;;
56429;SDS011;42332;52.136;20.666;2023-01-05T11:29:08;14.00;;;2.13;;
56429;SDS011;42332;52.136;20.666;2023-01-05T11:31:55;6.53;;;2.03;;
56429;SDS011;42332;52.136;20.666;2023-01-05T11:37:02;12.70;;;2.95;;
56429;SDS011;42332;52.136;20.666;2023-01-05T11:39:34;14.43;;;2.40;;
56429;SDS011;42332;52.136;20.666;2023-01-05T11:42:11;8.25;;;3.25;;
56429;SDS011;42332;52.136;20.666;2023-01-05T11:44:38;8.13;;;2.42;;
56429;SDS011;42332;52.136;20.666;2023-01-05T11:47:06;3.63;;;1.55;;
56429;SDS011;42332;52.136;20.666;2023-01-05T11:49:33;3.58;;;1.50;;
56429;SDS011;42332;52.136;20.666;2023-01-05T11:51:59;8.55;;;1.95;;
56429;SDS011;42332;52.136;20.666;2023-01-05T11:54:31;3.17;;;1.42;;
56429;SDS011;42332;52.136;20.666;2023-01-05T11:59:38;6.63;;;1.70;;
56429;SDS011;42332;52.136;20.666;2023-01-05T12:07:15;10.63;;;2.03;;
56429;SDS011;42332;52.136;20.666;2023-01-05T12:09:56;5.53;;;1.98;;
56429;SDS011;42332;52.136;20.666;2023-01-05T12:12:26;4.78;;;1.60;;
56429;SDS011;42332;52.136;20.666;2023-01-05T12:17:53;1.50;;;0.80;;
56429;SDS011;42332;52.136;20.666;2023-01-05T12:31:11;7.90;;;1.63;;
56429;SDS011;42332;52.136;20.666;2023-01-05T12:36:19;5.63;;;1.58;;
56429;SDS011;42332;52.136;20.666;2023-01-05T12:49:13;5.45;;;1.52;;
56429;SDS011;42332;52.136;20.666;2023-01-05T12:51:49;4.18;;;1.38;;
56429;SDS011;42332;52.136;20.666;2023-01-05T12:54:27;7.05;;;1.50;;
56429;SDS011;42332;52.136;20.666;2023-01-05T12:57:06;9.80;;;1.35;;
56429;SDS011;42332;52.136;20.666;2023-01-05T13:05:05;12.75;;;1.23;;
56429;SDS011;42332;52.136;20.666;2023-01-05T13:10:36;2.65;;;1.00;;
56429;SDS011;42332;52.136;20.666;2023-01-05T13:13:10;5.07;;;1.55;;
56429;SDS011;42332;52.136;20.666;2023-01-05T13:18:20;5.95;;;1.35;;
56429;SDS011;42332;52.136;20.666;2023-01-05T13:20:49;13.13;;;2.60;;
56429;SDS011;42332;52.136;20.666;2023-01-05T13:23:22;6.57;;;1.30;;
56429;SDS011;42332;52.136;20.666;2023-01-05T13:26:36;14.18;;;1.38;;
56429;SDS011;42332;52.136;20.666;2023-01-05T13:28:45;10.45;;;1.52;;
56429;SDS011;42332;52.136;20.666;2023-01-05T13:31:16;7.60;;;2.13;;
56429;SDS011;42332;52.136;20.666;2023-01-05T13:39:36;7.20;;;1.40;;
56429;SDS011;42332;52.136;20.666;2023-01-05T13:45:03;3.17;;;1.25;;
56429;SDS011;42332;52.136;20.666;2023-01-05T13:47:51;6.45;;;1.27;;
56429;SDS011;42332;52.136;20.666;2023-01-05T13:55:28;7.32;;;1.80;;
56429;SDS011;42332;52.136;20.666;2023-01-05T13:57:56;29.20;;;1.48;;
56429;SDS011;42332;52.136;20.666;2023-01-05T14:03:01;3.05;;;1.13;;
56429;SDS011;42332;52.136;20.666;2023-01-05T14:05:33;6.72;;;1.33;;
56429;SDS011;42332;52.136;20.666;2023-01-05T14:08:03;7.60;;;1.85;;
56429;SDS011;42332;52.136;20.666;2023-01-05T14:10:32;7.40;;;1.27;;
56429;SDS011;42332;52.136;20.666;2023-01-05T14:12:57;2.92;;;1.35;;
56429;SDS011;42332;52.136;20.666;2023-01-05T14:15:37;2.13;;;1.02;;
56429;SDS011;42332;52.136;20.666;2023-01-05T14:18:05;4.30;;;1.42;;
56429;SDS011;42332;52.136;20.666;2023-01-05T14:20:51;6.22;;;1.45;;
56429;SDS011;42332;52.136;20.666;2023-01-05T14:24:03;7.47;;;2.42;;
56429;SDS011;42332;52.136;20.666;2023-01-05T14:26:04;4.10;;;1.23;;
56429;SDS011;42332;52.136;20.666;2023-01-05T14:33:57;5.45;;;1.70;;
56429;SDS011;42332;52.136;20.666;2023-01-05T14:41:36;3.72;;;1.50;;
56429;SDS011;42332;52.136;20.666;2023-01-05T14:44:03;6.60;;;2.58;;
56429;SDS011;42332;52.136;20.666;2023-01-05T14:46:44;3.65;;;1.67;;
56429;SDS011;42332;52.136;20.666;2023-01-05T14:49:18;3.78;;;1.58;;
56429;SDS011;42332;52.136;20.666;2023-01-05T14:54:33;7.60;;;2.25;;
56429;SDS011;42332;52.136;20.666;2023-01-05T15:06:04;3.72;;;1.48;;
56429;SDS011;42332;52.136;20.666;2023-01-05T15:12:14;9.05;;;2.05;;
56429;SDS011;42332;52.136;20.666;2023-01-05T15:31:44;3.35;;;1.50;;
56429;SDS011;42332;52.136;20.666;2023-01-05T15:37:12;3.70;;;1.83;;
56429;SDS011;42332;52.136;20.666;2023-01-05T15:39:50;7.22;;;1.85;;
56429;SDS011;42332;52.136;20.666;2023-01-05T15:44:49;5.75;;;1.73;;
56429;SDS011;42332;52.136;20.666;2023-01-05T15:47:16;6.22;;;2.63;;
56429;SDS011;42332;52.136;20.666;2023-01-05T15:49:42;4.53;;;1.80;;
56429;SDS011;42332;52.136;20.666;2023-01-05T15:52:23;6.47;;;2.80;;
56429;SDS011;42332;52.136;20.666;2023-01-05T15:55:02;8.20;;;2.45;;
56429;SDS011;42332;52.136;20.666;2023-01-05T15:57:27;6.47;;;3.20;;
56429;SDS011;42332;52.136;20.666;2023-01-05T15:59:53;7.63;;;3.35;;
56429;SDS011;42332;52.136;20.666;2023-01-05T16:02:25;13.80;;;4.90;;
56429;SDS011;42332;52.136;20.666;2023-01-05T16:05:09;14.73;;;4.50;;
56429;SDS011;42332;52.136;20.666;2023-01-05T16:07:40;7.10;;;2.70;;
56429;SDS011;42332;52.136;20.666;2023-01-05T16:10:22;5.72;;;1.92;;
56429;SDS011;42332;52.136;20.666;2023-01-05T16:12:49;9.32;;;3.15;;
56429;SDS011;42332;52.136;20.666;2023-01-05T16:15:16;9.38;;;3.08;;
56429;SDS011;42332;52.136;20.666;2023-01-05T16:17:45;3.50;;;1.90;;
56429;SDS011;42332;52.136;20.666;2023-01-05T16:20:15;5.50;;;2.58;;
56429;SDS011;42332;52.136;20.666;2023-01-05T16:22:51;4.57;;;2.20;;
56429;SDS011;42332;52.136;20.666;2023-01-05T16:25:24;4.78;;;1.98;;
56429;SDS011;42332;52.136;20.666;2023-01-05T16:28:02;3.03;;;1.55;;
56429;SDS011;42332;52.136;20.666;2023-01-05T16:35:50;7.35;;;1.92;;
56429;SDS011;42332;52.136;20.666;2023-01-05T16:38:26;4.35;;;2.15;;
56429;SDS011;42332;52.136;20.666;2023-01-05T16:41:04;5.78;;;2.08;;
56429;SDS011;42332;52.136;20.666;2023-01-05T16:43:35;6.78;;;2.33;;
56429;SDS011;42332;52.136;20.666;2023-01-05T16:46:22;3.38;;;1.75;;
56429;SDS011;42332;52.136;20.666;2023-01-05T16:48:54;6.63;;;2.60;;
56429;SDS011;42332;52.136;20.666;2023-01-05T16:54:03;6.43;;;1.92;;
56429;SDS011;42332;52.136;20.666;2023-01-05T16:58:57;4.63;;;1.75;;
56429;SDS011;42332;52.136;20.666;2023-01-05T17:01:32;7.28;;;2.15;;
56429;SDS011;42332;52.136;20.666;2023-01-05T17:03:59;9.88;;;3.30;;
56429;SDS011;42332;52.136;20.666;2023-01-05T17:06:34;7.30;;;2.72;;
56429;SDS011;42332;52.136;20.666;2023-01-05T17:08:59;6.00;;;2.63;;
56429;SDS011;42332;52.136;20.666;2023-01-05T17:11:26;5.57;;;2.15;;
56429;SDS011;42332;52.136;20.666;2023-01-05T17:13:55;8.65;;;3.80;;
56429;SDS011;42332;52.136;20.666;2023-01-05T17:16:21;5.43;;;2.22;;
56429;SDS011;42332;52.136;20.666;2023-01-05T17:18:46;8.18;;;2.53;;
56429;SDS011;42332;52.136;20.666;2023-01-05T17:21:14;2.90;;;1.58;;
56429;SDS011;42332;52.136;20.666;2023-01-05T17:23:42;5.82;;;2.22;;
56429;SDS011;42332;52.136;20.666;2023-01-05T17:26:32;10.95;;;2.33;;
56429;SDS011;42332;52.136;20.666;2023-01-05T17:28:59;6.30;;;2.28;;
56429;SDS011;42332;52.136;20.666;2023-01-05T17:31:26;8.98;;;3.13;;
56429;SDS011;42332;52.136;20.666;2023-01-05T17:33:51;9.70;;;3.25;;
56429;SDS011;42332;52.136;20.666;2023-01-05T17:36:17;4.05;;;1.83;;
56429;SDS011;42332;52.136;20.666;2023-01-05T17:38:42;9.35;;;3.20;;